Time;durP1;ratioP1;P1;durP2;ratioP2;P2;SDS_P1;SDS_P2;PMS_P1;PMS_P2;Temp;Humidity;BMP_temperature;BMP_pressure;BME280_temperature;BME280_humidity;BME280_pressure;Samples;Min_cycle;Max_cycle;Signal;HPM_P1;HPM_P2
2021/10/28 00:14:30;;;;;;;37.50;20.60;;;;;;;10.74;88.98;101843.16;5012488;28;20428;-46
2021/10/28 00:16:57;;;;;;;44.38;20.52;;;;;;;10.75;89.22;101836.75;5021394;28;20022;-47
2021/10/28 00:19:23;;;;;;;49.03;22.20;;;;;;;10.67;89.38;101828.63;5012473;28;20077;-46
2021/10/28 00:21:49;;;;;;;55.75;21.20;;;;;;;10.64;89.95;101820.88;5012316;28;20030;-46
2021/10/28 00:24:15;;;;;;;42.92;21.05;;;;;;;10.60;90.00;101824.03;5012393;28;20416;-44
2021/10/28 00:26:44;;;;;;;48.38;23.15;;;;;;;10.59;90.24;101823.22;5013612;28;20053;-44
2021/10/28 00:29:14;;;;;;;50.70;22.42;;;;;;;10.56;90.04;101820.84;5022436;28;20029;-44
2021/10/28 00:31:40;;;;;;;47.35;22.35;;;;;;;10.54;89.96;101822.84;5032083;28;20021;-46
2021/10/28 00:34:07;;;;;;;48.47;23.77;;;;;;;10.52;90.25;101820.28;5031876;28;20041;-45
2021/10/28 00:36:34;;;;;;;54.90;22.70;;;;;;;10.51;90.39;101820.47;5030817;28;20036;-46
2021/10/28 00:38:59;;;;;;;50.03;24.00;;;;;;;10.51;90.28;101820.47;5016056;28;20847;-46
2021/10/28 00:41:25;;;;;;;39.67;22.45;;;;;;;10.50;90.58;101814.22;5016031;28;20057;-44
2021/10/28 00:43:54;;;;;;;38.03;21.55;;;;;;;10.57;90.38;101813.59;5022859;28;20381;-45
2021/10/28 00:46:22;;;;;;;46.35;21.90;;;;;;;10.59;90.35;101815.13;5026795;28;20107;-48
2021/10/28 00:48:48;;;;;;;43.25;20.85;;;;;;;10.61;89.98;101809.56;5034270;28;20084;-47
2021/10/28 00:51:15;;;;;;;49.63;22.67;;;;;;;10.61;90.12;101801.50;5035467;28;20061;-48
2021/10/28 00:53:41;;;;;;;45.25;21.65;;;;;;;10.60;90.23;101805.19;5035438;28;20028;-44
2021/10/28 00:56:06;;;;;;;43.83;19.88;;;;;;;10.62;90.19;101795.13;5027040;28;20034;-47
2021/10/28 00:58:33;;;;;;;51.45;20.17;;;;;;;10.62;89.86;101795.97;5016919;28;20037;-45
2021/10/28 01:01:00;;;;;;;40.53;20.35;;;;;;;10.63;89.69;101799.50;5015792;28;20385;-46
2021/10/28 01:03:26;;;;;;;44.50;19.17;;;;;;;10.67;89.70;101801.72;5014485;28;20037;-45
2021/10/28 01:05:51;;;;;;;45.25;19.85;;;;;;;10.70;89.69;101803.25;5034898;28;20028;-46
2021/10/28 01:08:17;;;;;;;46.88;20.33;;;;;;;10.67;89.75;101809.78;5020290;28;20112;-46
2021/10/28 01:10:46;;;;;;;40.40;20.75;;;;;;;10.65;89.61;101814.50;5029954;28;20477;-45
2021/10/28 01:13:12;;;;;;;41.63;20.45;;;;;;;10.65;89.61;101809.09;5034002;28;20072;-48
2021/10/28 01:15:37;;;;;;;46.20;19.77;;;;;;;10.66;89.76;101800.00;5028596;28;20041;-47
2021/10/28 01:18:10;;;;;;;41.42;19.60;;;;;;;10.67;89.73;101793.63;5026826;28;20083;-46
2021/10/28 01:20:37;;;;;;;40.03;18.85;;;;;;;10.72;89.37;101793.16;5033366;28;20033;-44
2021/10/28 01:23:03;;;;;;;39.15;18.45;;;;;;;10.71;89.66;101799.53;5034868;28;20033;-43
2021/10/28 01:25:28;;;;;;;38.65;19.38;;;;;;;10.68;89.43;101792.63;5022749;28;20038;-45
2021/10/28 01:27:53;;;;;;;39.40;18.38;;;;;;;10.67;89.48;101793.63;5025233;28;20021;-44
2021/10/28 01:30:19;;;;;;;41.88;18.60;;;;;;;10.67;89.48;101790.94;5035057;28;20041;-45
2021/10/28 01:32:44;;;;;;;47.42;18.98;;;;;;;10.66;89.37;101794.63;5034866;28;20149;-46
2021/10/28 01:35:11;;;;;;;37.05;17.33;;;;;;;10.67;89.34;101788.25;5033420;28;20487;-45
2021/10/28 01:37:41;;;;;;;48.15;18.83;;;;;;;10.64;89.67;101783.19;5033284;28;20393;-44
2021/10/28 01:40:07;;;;;;;45.55;17.58;;;;;;;10.63;89.54;101786.88;5033629;28;20083;-45
2021/10/28 01:42:33;;;;;;;46.72;18.85;;;;;;;10.59;89.80;101782.81;5034553;28;20048;-44
2021/10/28 01:44:59;;;;;;;53.00;19.55;;;;;;;10.59;89.43;101782.81;5034678;28;20477;-43
2021/10/28 01:47:24;;;;;;;37.67;17.58;;;;;;;10.54;89.75;101777.06;5032550;28;20496;-44
2021/10/28 01:49:49;;;;;;;42.63;17.63;;;;;;;10.54;89.99;101782.47;5037330;28;20053;-45
2021/10/28 01:52:15;;;;;;;43.80;18.55;;;;;;;10.54;89.85;101777.06;5054798;28;20025;-48
2021/10/28 01:54:40;;;;;;;37.03;17.85;;;;;;;10.53;89.84;101769.97;5054123;28;20049;-48
2021/10/28 01:57:15;;;;;;;46.20;19.10;;;;;;;10.49;89.80;101769.47;5032015;28;20029;-48
2021/10/28 01:59:41;;;;;;;46.40;18.83;;;;;;;10.43;89.92;101771.97;5034378;28;20030;-42
2021/10/28 02:02:06;;;;;;;51.22;19.75;;;;;;;10.40;90.32;101769.56;5032915;28;20137;-46
2021/10/28 02:04:31;;;;;;;49.75;19.42;;;;;;;10.38;90.27;101768.91;5034233;28;20151;-44
2021/10/28 02:06:57;;;;;;;45.13;19.10;;;;;;;10.36;90.25;101766.34;5030902;28;20529;-45
2021/10/28 02:09:22;;;;;;;47.88;20.67;;;;;;;10.35;90.27;101764.69;5014403;28;20022;-45
2021/10/28 02:11:47;;;;;;;47.75;18.90;;;;;;;10.33;90.28;101766.69;5015877;28;20026;-47
2021/10/28 02:14:12;;;;;;;44.78;18.77;;;;;;;10.30;90.70;101759.75;5034089;28;20026;-45
2021/10/28 02:16:38;;;;;;;42.45;19.65;;;;;;;10.29;90.30;101757.22;5033464;28;20052;-46
2021/10/28 02:19:04;;;;;;;48.97;20.30;;;;;;;10.25;90.55;101756.66;5034247;28;20029;-48
2021/10/28 02:21:30;;;;;;;52.72;20.50;;;;;;;10.25;90.58;101756.66;5034129;28;20029;-46
2021/10/28 02:23:56;;;;;;;52.83;20.35;;;;;;;10.25;90.77;101756.66;5031862;28;20495;-44
2021/10/28 02:26:21;;;;;;;50.65;19.67;;;;;;;10.25;90.53;101745.91;5014070;28;20041;-45
2021/10/28 02:28:48;;;;;;;46.67;19.00;;;;;;;10.27;90.37;101751.16;5015075;28;20022;-46
2021/10/28 02:31:13;;;;;;;51.55;21.10;;;;;;;10.27;90.31;101753.84;5014002;28;20100;-46
2021/10/28 02:33:39;;;;;;;53.10;19.80;;;;;;;10.28;90.10;101748.31;5015078;28;20440;-48
2021/10/28 02:36:05;;;;;;;52.97;20.42;;;;;;;10.29;90.08;101743.75;5013774;28;20037;-47
2021/10/28 02:38:30;;;;;;;52.78;19.52;;;;;;;10.29;90.14;101744.63;5024021;28;20053;-48
2021/10/28 02:40:56;;;;;;;47.15;18.42;;;;;;;10.30;89.95;101748.16;5013963;28;20033;-48
2021/10/28 02:43:21;;;;;;;50.65;19.95;;;;;;;10.29;89.83;101752.72;5012325;28;20018;-45
2021/10/28 02:45:47;;;;;;;45.70;20.13;;;;;;;10.25;90.08;101740.53;5013677;28;20113;-45
2021/10/28 02:48:12;;;;;;;58.17;20.58;;;;;;;10.20;90.35;101737.47;5024742;28;20033;-47
2021/10/28 02:50:38;;;;;;;60.88;20.85;;;;;;;10.18;90.16;101731.38;5014101;28;20030;-47
2021/10/28 02:53:03;;;;;;;57.15;19.27;;;;;;;10.15;90.39;101744.31;5028780;28;20526;-46
2021/10/28 02:55:29;;;;;;;52.20;19.88;;;;;;;10.13;90.48;101728.31;5013065;28;20054;-45
2021/10/28 02:57:54;;;;;;;56.08;21.42;;;;;;;10.11;90.56;101722.28;5021996;28;20552;-46
2021/10/28 03:00:19;;;;;;;53.88;20.08;;;;;;;10.08;90.73;101720.75;5032456;28;20484;-45
2021/10/28 03:02:45;;;;;;;53.22;20.70;;;;;;;10.08;90.60;101722.56;5045355;28;20065;-45
2021/10/28 03:05:10;;;;;;;56.60;21.27;;;;;;;10.03;90.48;101715.00;5033210;28;20033;-46
2021/10/28 03:07:36;;;;;;;59.10;20.30;;;;;;;10.04;90.73;101715.84;5032259;28;20021;-45
2021/10/28 03:10:04;;;;;;;60.88;20.00;;;;;;;10.00;90.78;101714.44;5033270;28;20040;-46
2021/10/28 03:12:30;;;;;;;61.80;21.25;;;;;;;9.91;90.33;101710.84;5032861;28;20069;-45
2021/10/28 03:14:57;;;;;;;60.33;21.05;;;;;;;9.87;90.41;101713.03;5032639;28;20026;-48
2021/10/28 03:17:32;;;;;;;54.17;21.35;;;;;;;9.81;90.49;101710.94;5031250;28;20025;-47
2021/10/28 03:27:38;;;;;;;64.05;23.90;;;;;;;9.56;91.28;101701.00;5016624;28;20033;-45
2021/10/28 03:30:06;;;;;;;63.38;24.58;;;;;;;9.52;91.39;101700.44;5013035;28;20045;-46
2021/10/28 03:32:31;;;;;;;79.50;26.27;;;;;;;9.51;91.84;101697.94;5016513;28;20026;-45
2021/10/28 03:34:57;;;;;;;79.78;26.00;;;;;;;9.48;91.80;101704.47;5013566;28;20028;-44
2021/10/28 03:37:29;;;;;;;70.05;26.52;;;;;;;9.43;91.87;101696.84;5027390;28;20029;-44
2021/10/28 03:48:10;;;;;;;77.32;27.02;;;;;;;9.35;92.00;101686.03;5023721;28;20030;-47
2021/10/28 04:06:23;;;;;;;73.22;26.10;;;;;;;9.26;92.44;101683.41;5032418;28;20048;-46
2021/10/28 04:16:27;;;;;;;67.45;25.48;;;;;;;9.25;92.31;101682.56;5022814;28;20556;-45
2021/10/28 04:17:38;;;;;;;68.50;25.65;;;;;;;9.21;92.50;101670.41;5033251;28;20519;-44
2021/10/28 04:30:40;;;;;;;69.88;24.60;;;;;;;9.15;92.29;101663.81;5027831;28;20454;-44
2021/10/28 04:33:07;;;;;;;62.70;24.50;;;;;;;9.14;92.46;101659.47;5036090;28;20469;-45
2021/10/28 04:35:32;;;;;;;63.72;24.20;;;;;;;9.18;92.43;101654.63;5034794;28;20063;-46
2021/10/28 04:37:58;;;;;;;76.93;29.40;;;;;;;9.19;92.20;101659.00;5028250;28;20054;-44
2021/10/28 04:40:23;;;;;;;56.38;24.83;;;;;;;9.18;92.47;101650.09;5027983;28;20203;-45
2021/10/28 04:42:48;;;;;;;70.50;24.58;;;;;;;9.20;92.29;101658.00;5020604;28;20481;-45
2021/10/28 04:45:14;;;;;;;66.13;24.70;;;;;;;9.22;92.37;101658.69;5028635;28;20034;-46
2021/10/28 04:47:39;;;;;;;55.90;23.00;;;;;;;9.25;92.16;101644.13;5036221;28;20026;-46
2021/10/28 04:50:06;;;;;;;58.08;21.02;;;;;;;9.30;92.33;101650.72;5017279;28;20435;-47
2021/10/28 04:52:31;;;;;;;54.10;21.38;;;;;;;9.32;92.02;101646.03;5014815;28;20061;-46
2021/10/28 04:54:57;;;;;;;53.13;20.02;;;;;;;9.36;92.10;101650.09;5016151;28;20466;-46
2021/10/28 04:57:22;;;;;;;52.83;21.35;;;;;;;9.36;92.01;101652.78;5020256;28;20031;-45
2021/10/28 04:59:48;;;;;;;56.08;19.83;;;;;;;9.37;91.50;101657.16;5016009;28;20075;-45
2021/10/28 05:02:13;;;;;;;45.55;19.92;;;;;;;9.40;91.50;101646.13;5019332;28;20037;-44
2021/10/28 05:04:39;;;;;;;57.38;21.15;;;;;;;9.37;91.12;101643.75;5022882;28;20026;-45
2021/10/28 05:07:04;;;;;;;52.70;21.17;;;;;;;9.32;91.11;101646.03;5028624;28;20104;-46
2021/10/28 05:09:30;;;;;;;57.92;22.20;;;;;;;9.30;91.40;101650.72;5023266;28;20041;-46
2021/10/28 05:11:56;;;;;;;55.00;20.35;;;;;;;9.28;91.23;101641.97;5029636;28;20025;-45
2021/10/28 05:14:22;;;;;;;53.28;21.48;;;;;;;9.28;91.32;101649.19;5031179;28;20116;-45
2021/10/28 05:16:48;;;;;;;49.75;20.52;;;;;;;9.27;91.20;101653.72;5035061;28;20441;-46
2021/10/28 05:19:13;;;;;;;47.13;21.08;;;;;;;9.24;91.47;101654.00;5023061;28;20025;-45
2021/10/28 05:21:39;;;;;;;44.28;21.13;;;;;;;9.21;91.56;101648.94;5022884;28;20064;-43
2021/10/28 05:24:04;;;;;;;53.08;20.92;;;;;;;9.20;91.27;101650.78;5029769;28;20061;-48
2021/10/28 05:26:29;;;;;;;53.88;22.88;;;;;;;9.17;91.33;101650.25;5020357;28;20401;-44
2021/10/28 05:28:55;;;;;;;47.63;21.50;;;;;;;9.14;91.32;101647.88;5032026;28;20029;-49
2021/10/28 05:31:21;;;;;;;58.78;20.80;;;;;;;9.08;91.63;101640.41;5031666;28;20060;-46
2021/10/28 05:33:48;;;;;;;50.72;21.95;;;;;;;9.07;91.70;101644.09;5033039;28;20026;-46
2021/10/28 05:36:13;;;;;;;51.55;21.90;;;;;;;9.08;91.86;101645.78;5031430;28;20120;-45
2021/10/28 05:38:38;;;;;;;55.83;21.58;;;;;;;9.05;91.83;101643.41;5028325;28;20054;-43
2021/10/28 05:41:04;;;;;;;62.08;22.25;;;;;;;9.05;91.70;101635.34;4997386;28;20026;-45
2021/10/28 05:43:29;;;;;;;52.28;22.38;;;;;;;9.00;91.58;101636.69;5025890;28;20037;-47
2021/10/28 05:45:54;;;;;;;53.20;22.92;;;;;;;8.97;91.98;101630.75;5014994;28;20037;-45
2021/10/28 05:48:20;;;;;;;57.22;22.55;;;;;;;8.94;91.95;101634.56;5015814;28;20038;-45
2021/10/28 05:50:46;;;;;;;56.38;23.40;;;;;;;8.92;91.63;101644.63;5014988;28;20026;-43
2021/10/28 05:53:12;;;;;;;61.03;23.00;;;;;;;8.86;92.07;101633.66;5017616;28;20025;-45
2021/10/28 05:55:37;;;;;;;65.75;23.83;;;;;;;8.83;92.35;101637.47;5034036;28;20059;-45
2021/10/28 05:58:03;;;;;;;51.47;23.70;;;;;;;8.83;92.56;101629.44;5032401;28;20472;-46
2021/10/28 06:00:28;;;;;;;60.08;26.17;;;;;;;8.83;92.21;101629.44;5023789;28;20077;-44
2021/10/28 06:02:54;;;;;;;52.58;23.70;;;;;;;8.78;92.25;101629.88;5014655;28;20148;-45
2021/10/28 06:05:20;;;;;;;54.03;24.17;;;;;;;8.79;92.54;101630.72;5027076;28;20477;-46
2021/10/28 06:07:45;;;;;;;54.67;23.77;;;;;;;8.77;92.26;101632.72;5023022;28;20045;-46
2021/10/28 06:10:15;;;;;;;61.13;24.08;;;;;;;8.77;92.68;101630.03;5034060;28;20453;-46
2021/10/28 06:12:44;;;;;;;49.33;22.60;;;;;;;8.77;92.63;101630.88;5032339;28;20487;-45
2021/10/28 06:15:11;;;;;;;57.70;23.48;;;;;;;8.77;92.84;101630.03;5033497;28;20021;-48
2021/10/28 06:17:44;;;;;;;50.13;22.55;;;;;;;8.79;92.52;101631.59;5033951;28;20030;-47
2021/10/28 06:20:10;;;;;;;50.13;22.98;;;;;;;8.78;92.58;101623.66;5033639;28;20457;-45
2021/10/28 06:22:35;;;;;;;50.03;22.70;;;;;;;8.77;92.82;101624.69;5033148;28;20120;-47
2021/10/28 06:25:00;;;;;;;55.97;22.05;;;;;;;8.80;92.44;101627.06;5030525;28;20052;-45
2021/10/28 06:27:26;;;;;;;53.85;22.55;;;;;;;8.84;92.71;101624.91;5033811;28;20045;-49
2021/10/28 06:29:51;;;;;;;53.55;22.30;;;;;;;8.87;92.47;101624.59;5033275;28;20025;-46
2021/10/28 06:32:16;;;;;;;49.40;20.95;;;;;;;8.87;92.60;101620.06;5017478;28;20357;-45
2021/10/28 06:34:46;;;;;;;47.95;19.50;;;;;;;8.88;92.30;101619.09;5012466;28;20057;-45
2021/10/28 06:37:12;;;;;;;46.35;21.20;;;;;;;8.89;92.18;101615.38;5013584;28;20040;-46
2021/10/28 06:39:38;;;;;;;52.15;20.77;;;;;;;8.89;91.95;101611.88;5022306;28;20129;-49
2021/10/28 06:42:05;;;;;;;46.80;20.02;;;;;;;8.89;92.32;101615.38;5033043;28;20469;-44
2021/10/28 06:44:30;;;;;;;37.70;20.38;;;;;;;8.89;91.97;101615.38;5019516;28;20121;-46
2021/10/28 06:46:56;;;;;;;43.13;18.73;;;;;;;8.92;91.97;101604.34;5013693;28;20463;-47
2021/10/28 06:49:22;;;;;;;44.83;19.45;;;;;;;8.95;92.04;101598.69;5033328;28;20121;-45
2021/10/28 06:51:48;;;;;;;39.80;18.48;;;;;;;8.97;91.79;101599.38;5024212;28;20105;-45
2021/10/28 07:04:40;;;;;;;34.85;18.00;;;;;;;9.21;90.33;101605.97;5025259;28;20053;-45
2021/10/28 07:07:05;;;;;;;37.22;17.95;;;;;;;9.21;90.27;101600.59;5013972;28;20030;-50
2021/10/28 07:09:33;;;;;;;36.30;17.17;;;;;;;9.26;90.61;101603.66;5024670;28;20163;-44
2021/10/28 07:12:45;;;;;;;33.30;16.38;;;;;;;9.30;90.12;101588.94;5028689;28;20104;-48
2021/10/28 07:14:50;;;;;;;51.90;16.65;;;;;;;9.32;89.76;101586.94;5032952;28;20049;-48
2021/10/28 07:18:00;;;;;;;35.63;16.92;;;;;;;9.37;89.67;101583.75;5033983;28;20052;-45
2021/10/28 07:33:14;;;;;;;36.92;14.63;;;;;;;9.84;87.86;101583.44;5031941;28;20037;-46
2021/10/28 07:57:55;;;;;;;26.75;10.77;;;;;;;14.41;68.79;101552.34;5011734;28;20137;-48
2021/10/28 08:04:44;;;;;;;23.30;10.80;;;;;;;14.80;68.49;101556.56;5011106;28;20511;-50
2021/10/28 08:17:01;;;;;;;20.25;9.85;;;;;;;15.74;63.25;101545.47;5031279;28;20060;-49
2021/10/28 08:19:45;;;;;;;25.85;9.57;;;;;;;15.94;62.70;101541.03;5015619;28;20103;-47
2021/10/28 08:22:24;;;;;;;23.75;9.48;;;;;;;16.20;62.38;101540.31;5010979;28;20122;-48
2021/10/28 08:30:19;;;;;;;22.60;11.30;;;;;;;16.02;62.22;101521.84;5021593;28;20045;-49
2021/10/28 08:32:44;;;;;;;23.45;10.00;;;;;;;16.87;60.50;101526.94;5035463;28;20081;-48
2021/10/28 08:35:10;;;;;;;22.55;10.05;;;;;;;17.04;59.13;101528.25;5051860;28;20447;-46
2021/10/28 08:37:46;;;;;;;23.83;10.70;;;;;;;16.32;61.19;101526.97;5032854;28;20029;-48
2021/10/28 08:40:14;;;;;;;20.75;10.52;;;;;;;15.86;62.66;101524.91;5019774;28;20133;-49
2021/10/28 08:42:43;;;;;;;20.42;10.25;;;;;;;16.46;60.40;101514.31;5012446;28;20048;-49
2021/10/28 08:45:13;;;;;;;20.17;9.80;;;;;;;16.10;61.39;101512.69;5012151;28;20033;-48
2021/10/28 08:47:46;;;;;;;23.25;10.23;;;;;;;16.16;61.98;101511.03;5012178;28;20034;-50
2021/10/28 08:50:19;;;;;;;23.27;10.15;;;;;;;16.13;61.44;101511.47;5012186;28;20032;-46
2021/10/28 08:53:13;;;;;;;21.95;11.27;;;;;;;16.52;60.71;101504.50;5012197;28;20041;-46
2021/10/28 08:55:35;;;;;;;20.15;10.30;;;;;;;16.83;60.33;101507.50;5023237;28;20045;-47
2021/10/28 09:26:28;;;;;;;27.15;12.00;;;;;;;13.92;69.89;101469.03;5035454;28;20519;-49
2021/10/28 09:29:15;;;;;;;21.90;11.20;;;;;;;14.01;69.99;101467.94;5034701;28;20035;-48
2021/10/28 09:31:57;;;;;;;22.63;11.77;;;;;;;14.00;69.71;101461.66;5026222;28;20042;-48
2021/10/28 09:46:31;;;;;;;28.27;10.95;;;;;;;14.82;68.31;101437.94;5014683;28;20101;-48
2021/10/28 09:48:33;;;;;;;21.25;10.45;;;;;;;15.15;66.66;101430.94;5014168;28;20040;-47
2021/10/28 09:51:01;;;;;;;19.90;10.40;;;;;;;14.98;66.32;101435.00;5020949;28;20025;-49
2021/10/28 09:53:54;;;;;;;21.63;10.25;;;;;;;15.34;65.24;101433.97;5023633;28;20461;-51
2021/10/28 09:59:06;;;;;;;19.58;10.52;;;;;;;15.24;65.76;101436.19;5027923;28;20489;-49
2021/10/28 10:01:46;;;;;;;24.90;10.98;;;;;;;15.01;66.26;101437.31;5015015;28;20053;-48
2021/10/28 10:04:12;;;;;;;26.27;11.43;;;;;;;14.88;67.25;101421.75;5019132;28;20032;-50
2021/10/28 10:06:41;;;;;;;44.60;11.20;;;;;;;14.60;67.84;101424.44;5021264;28;20056;-48
2021/10/28 10:09:08;;;;;;;23.23;10.50;;;;;;;14.65;68.06;101430.09;5013013;28;20026;-48
2021/10/28 10:11:34;;;;;;;26.63;10.35;;;;;;;14.67;67.20;101419.09;5031683;28;20421;-47
2021/10/28 10:14:00;;;;;;;20.48;8.82;;;;;;;14.83;67.38;101417.97;5021467;28;20060;-47
2021/10/28 10:16:25;;;;;;;20.50;9.48;;;;;;;14.76;67.04;101420.59;5033920;28;20110;-46
2021/10/28 10:18:51;;;;;;;17.23;9.73;;;;;;;14.81;67.06;101420.03;5023505;28;20030;-48
2021/10/28 10:21:34;;;;;;;25.08;9.90;;;;;;;14.76;67.01;101423.31;5018267;28;20057;-48
2021/10/28 10:24:34;;;;;;;22.02;11.20;;;;;;;14.80;67.04;101419.19;5041924;28;20032;-47
2021/10/28 11:05:12;;;;;;;25.15;9.95;;;;;;;16.36;61.03;101373.41;5013948;28;20053;-47
2021/10/28 12:16:31;;;;;;;29.00;10.40;;;;;;;16.46;60.26;101264.34;5011494;28;20073;-48
2021/10/28 13:28:27;;;;;;;17.88;7.90;;;;;;;18.38;52.76;101186.31;5035132;28;20139;-46
2021/10/28 14:32:55;;;;;;;16.73;6.15;;;;;;;17.94;53.80;101127.44;5014054;28;20456;-47
2021/10/28 14:36:26;;;;;;;18.75;5.72;;;;;;;17.62;54.46;101127.47;5013504;28;20029;-47
2021/10/28 15:02:58;;;;;;;11.82;5.88;;;;;;;17.41;55.36;101122.41;5010609;28;20132;-47
2021/10/28 15:30:16;;;;;;;11.82;6.18;;;;;;;15.83;61.77;101093.75;5008498;28;20072;-45
2021/10/28 16:22:27;;;;;;;19.33;7.00;;;;;;;14.63;65.80;101050.22;5014731;28;20041;-47
2021/10/28 16:24:52;;;;;;;17.42;7.40;;;;;;;14.52;66.35;101053.47;5009440;28;20362;-49
2021/10/28 16:27:17;;;;;;;15.90;7.13;;;;;;;14.48;66.53;101041.38;5009451;28;20036;-47
2021/10/28 16:29:43;;;;;;;13.90;7.43;;;;;;;14.40;67.11;101030.72;5009434;28;20425;-45
2021/10/28 16:32:08;;;;;;;16.10;6.45;;;;;;;14.33;67.06;101029.88;5009422;28;20480;-46
2021/10/28 16:34:34;;;;;;;20.13;7.85;;;;;;;14.25;67.29;101026.28;5020987;28;20030;-49
2021/10/28 16:37:00;;;;;;;14.82;7.70;;;;;;;14.22;67.32;101024.00;5028882;28;20025;-47
2021/10/28 16:39:25;;;;;;;15.82;7.90;;;;;;;14.21;67.19;101027.72;5029237;28;20029;-47
2021/10/28 16:41:54;;;;;;;17.45;7.95;;;;;;;14.17;67.49;101023.75;5027628;28;20025;-47
2021/10/28 16:44:21;;;;;;;22.20;8.25;;;;;;;14.15;67.57;101030.41;5029119;28;20096;-48
2021/10/28 16:46:47;;;;;;;21.38;7.90;;;;;;;14.11;67.58;101029.97;5029056;28;20041;-46
2021/10/28 16:49:13;;;;;;;14.70;7.30;;;;;;;14.04;67.31;101040.78;5017205;28;20038;-47
2021/10/28 16:51:40;;;;;;;17.60;7.53;;;;;;;14.04;67.25;101035.34;5009151;28;20034;-48
2021/10/28 16:54:05;;;;;;;24.73;7.35;;;;;;;14.01;67.37;101037.63;5014542;28;20046;-48
2021/10/28 16:56:31;;;;;;;14.05;6.88;;;;;;;14.03;67.55;101032.84;5019532;28;20115;-46
2021/10/28 16:58:57;;;;;;;21.65;7.47;;;;;;;13.96;67.47;101026.56;5024262;28;20100;-46
2021/10/28 17:01:24;;;;;;;15.45;7.28;;;;;;;13.92;67.55;101025.28;5018847;28;20057;-49
2021/10/28 17:03:49;;;;;;;15.13;6.97;;;;;;;13.83;67.54;101022.75;5026269;28;20069;-48
2021/10/28 17:06:16;;;;;;;17.27;6.40;;;;;;;13.79;67.75;101023.34;5017752;28;20493;-48
2021/10/28 17:08:45;;;;;;;16.88;7.80;;;;;;;13.79;67.88;101026.88;5032382;28;20120;-46
2021/10/28 17:11:11;;;;;;;18.40;6.90;;;;;;;13.77;68.08;101018.16;5041792;28;20059;-48
2021/10/28 17:13:37;;;;;;;14.45;8.02;;;;;;;13.75;67.97;101020.19;5028284;28;20358;-46
2021/10/28 17:16:03;;;;;;;15.45;7.15;;;;;;;13.72;68.16;101011.66;5026997;28;20076;-46
2021/10/28 17:18:28;;;;;;;19.63;6.95;;;;;;;13.67;68.53;101020.38;5011515;28;20503;-47
2021/10/28 17:20:56;;;;;;;18.30;7.18;;;;;;;13.61;68.48;101013.03;5022497;28;20108;-48
2021/10/28 17:23:30;;;;;;;16.73;7.35;;;;;;;13.60;68.81;101022.19;5016088;28;20033;-46
2021/10/28 17:25:56;;;;;;;18.70;7.90;;;;;;;13.58;68.64;101014.25;5012376;28;20032;-46
2021/10/28 17:28:22;;;;;;;23.20;7.55;;;;;;;13.53;68.89;101013.19;5043648;28;20018;-46
2021/10/28 17:30:48;;;;;;;14.00;7.45;;;;;;;13.49;69.04;101003.81;5029550;28;20103;-50
2021/10/28 17:33:13;;;;;;;16.35;7.63;;;;;;;13.45;68.96;101008.75;5027376;28;20905;-47
2021/10/28 17:35:38;;;;;;;18.33;7.65;;;;;;;13.42;69.46;101009.16;5018087;28;20041;-46
2021/10/28 17:38:04;;;;;;;17.30;7.97;;;;;;;13.40;69.53;101011.22;5012495;28;20049;-46
2021/10/28 17:40:29;;;;;;;17.58;7.60;;;;;;;13.37;69.59;101007.03;5012134;28;20042;-49
2021/10/28 17:42:56;;;;;;;16.35;7.47;;;;;;;13.35;69.54;101001.00;4994361;28;20033;-45
2021/10/28 17:45:26;;;;;;;18.77;7.57;;;;;;;13.32;69.82;101005.94;5011786;28;20397;-45
2021/10/28 17:47:52;;;;;;;19.75;7.80;;;;;;;13.30;70.18;101005.34;5028302;28;20037;-47
2021/10/28 17:50:18;;;;;;;16.08;7.68;;;;;;;13.29;70.19;101003.63;5034561;28;20374;-49
2021/10/28 17:52:43;;;;;;;18.80;8.15;;;;;;;13.31;70.04;101005.13;5031356;28;20849;-48
2021/10/28 17:55:09;;;;;;;21.60;7.78;;;;;;;13.32;69.97;101008.66;5018024;28;20049;-48
2021/10/28 17:57:40;;;;;;;15.20;7.55;;;;;;;13.32;69.96;101008.66;5022817;28;20026;-46
2021/10/28 18:00:07;;;;;;;18.30;8.20;;;;;;;13.29;70.39;100999.06;5010644;28;20018;-45
2021/10/28 18:02:32;;;;;;;14.07;7.88;;;;;;;13.25;70.33;101000.47;5023829;28;20396;-45
2021/10/28 18:04:59;;;;;;;21.17;9.55;;;;;;;13.23;70.85;100999.81;5030614;28;20041;-46
2021/10/28 18:07:24;;;;;;;15.52;7.85;;;;;;;13.21;70.68;100999.19;5033485;28;20034;-47
2021/10/28 18:09:50;;;;;;;26.58;8.80;;;;;;;13.20;70.59;100994.81;5033149;28;20429;-44
2021/10/28 18:12:15;;;;;;;16.15;8.68;;;;;;;13.27;70.23;101000.28;5034263;28;20040;-47
2021/10/28 18:14:40;;;;;;;20.67;8.50;;;;;;;13.21;70.47;100995.66;5034356;28;20021;-46
2021/10/28 18:17:08;;;;;;;20.20;8.10;;;;;;;13.25;70.57;100991.53;5023323;28;20017;-49
2021/10/28 18:19:33;;;;;;;23.38;8.77;;;;;;;13.21;70.72;100991.06;5019721;28;20034;-48
2021/10/28 18:21:58;;;;;;;19.85;8.73;;;;;;;13.19;70.45;100987.72;5020770;28;20419;-48
2021/10/28 18:24:25;;;;;;;25.55;8.77;;;;;;;13.22;70.71;100987.34;5021807;28;20057;-48
2021/10/28 18:26:51;;;;;;;21.10;8.70;;;;;;;13.22;70.83;100986.50;5019749;28;20109;-47
2021/10/28 18:29:17;;;;;;;19.05;9.18;;;;;;;13.20;70.93;100994.00;5020503;28;20079;-45
2021/10/28 18:31:42;;;;;;;18.48;8.27;;;;;;;13.17;70.90;100992.50;5024670;28;20120;-52
2021/10/28 18:34:09;;;;;;;17.40;8.05;;;;;;;13.16;70.94;100985.41;5008816;28;20037;-45
2021/10/28 18:36:36;;;;;;;21.80;8.30;;;;;;;13.10;71.26;101000.53;5015815;28;20531;-46
2021/10/28 18:39:04;;;;;;;16.97;7.80;;;;;;;13.05;71.23;100991.34;5018796;28;20038;-47
2021/10/28 18:41:30;;;;;;;19.45;8.18;;;;;;;13.03;71.74;100985.31;5012865;28;20022;-46
2021/10/28 18:43:55;;;;;;;15.60;8.05;;;;;;;12.98;71.69;100994.00;5017169;28;20372;-47
2021/10/28 18:46:21;;;;;;;17.35;8.07;;;;;;;12.93;71.80;100993.75;5020660;28;20113;-47
2021/10/28 18:48:54;;;;;;;25.15;7.75;;;;;;;12.91;72.07;100990.41;5011298;28;20030;-43
2021/10/28 18:51:20;;;;;;;26.52;8.32;;;;;;;12.89;72.25;100992.47;5009610;28;20124;-46
2021/10/28 18:53:48;;;;;;;17.98;8.00;;;;;;;12.86;72.73;100990.97;5010523;28;20446;-48
2021/10/28 18:56:14;;;;;;;;;;;;;;;12.80;73.47;100982.84;5011131;28;20025;-45
2021/10/28 18:58:39;;;;;;;20.73;8.02;;;;;;;12.73;73.68;100990.84;5010699;28;19920;-46
2021/10/28 19:01:05;;;;;;;16.70;7.20;;;;;;;12.73;73.97;100990.84;5010705;28;20034;-46
2021/10/28 19:03:31;;;;;;;18.58;8.05;;;;;;;12.67;74.16;100983.53;5010856;28;20061;-47
2021/10/28 19:05:57;;;;;;;19.05;7.82;;;;;;;12.68;74.42;100990.59;5011202;28;20108;-46
2021/10/28 19:08:23;;;;;;;24.75;8.48;;;;;;;12.64;74.71;100992.03;5011912;28;20068;-49
2021/10/28 19:10:49;;;;;;;16.75;8.75;;;;;;;12.62;75.07;100988.66;5012263;28;20026;-44
2021/10/28 19:13:15;;;;;;;18.05;8.80;;;;;;;12.58;75.38;100984.66;5013524;28;20117;-47
2021/10/28 19:15:40;;;;;;;14.73;8.10;;;;;;;12.55;75.36;100983.19;5013498;28;20026;-47
2021/10/28 19:18:06;;;;;;;19.98;8.35;;;;;;;12.57;75.86;100988.41;5013520;28;20041;-49
2021/10/28 19:20:33;;;;;;;21.13;9.07;;;;;;;12.57;75.86;100975.75;5014917;28;20045;-47
2021/10/28 19:22:58;;;;;;;19.85;8.38;;;;;;;12.54;75.88;100975.28;5025777;28;20059;-47
2021/10/28 19:25:24;;;;;;;20.67;8.38;;;;;;;12.52;76.09;100970.06;5029739;28;20029;-48
2021/10/28 19:27:53;;;;;;;22.13;9.80;;;;;;;12.52;76.10;100967.38;5029883;28;20539;-47
2021/10/28 19:30:32;;;;;;;17.50;8.27;;;;;;;12.44;76.38;100956.69;5029889;28;20036;-45
2021/10/28 19:33:07;;;;;;;27.10;8.88;;;;;;;12.44;76.35;100959.41;5030034;28;20038;-48
2021/10/28 19:35:34;;;;;;;21.40;9.20;;;;;;;12.39;76.85;100959.13;5029483;28;20479;-47
2021/10/28 19:40:47;;;;;;;18.10;9.50;;;;;;;12.32;76.97;100956.34;5030692;28;20041;-48
2021/10/28 19:46:18;;;;;;;23.70;10.18;;;;;;;12.31;77.09;100957.38;5010765;28;20088;-46
2021/10/28 19:48:46;;;;;;;20.17;9.63;;;;;;;12.26;77.33;100957.94;5014498;28;20033;-45